Home > Products > Valid Products > TAF

000
FTUS44 KSHV 222300
TAFTXK
TAF
KTXK 222327Z 2300/2324 08004KT P6SM SKC
     FM230500 08004KT P6SM SCT250
     FM231200 08004KT P6SM SCT150 BKN250
     FM231800 08004KT P6SM FEW150=



000
FTUS44 KSHV 222300
TAFTYR
TAF
KTYR 222327Z 2300/2324 06006KT P6SM SKC
     FM230400 10004KT P6SM SCT150 BKN250
     FM231500 10004KT P6SM FEW150=



000
FTUS44 KSHV 222300
TAFLFK
TAF
KLFK 222327Z 2300/2324 06005KT P6SM SKC
     FM230400 07004KT P6SM SCT150 BKN250
     FM231500 07004KT P6SM FEW150=



000
FTUS44 KSHV 222300
TAFELD
TAF
KELD 222327Z 2300/2324 04005KT P6SM SKC
     FM230500 05004KT P6SM SCT250
     FM231200 05004KT P6SM SCT150 BKN250
     FM231800 05004KT P6SM FEW150=



000
FTUS44 KSHV 222300
TAFGGG
TAF
KGGG 222327Z 2300/2324 06006KT P6SM SKC
     FM230500 09004KT P6SM SCT150 BKN250
     FM231500 09004KT P6SM FEW150=



000
FTUS44 KSHV 222300
TAFSHV
TAF
KSHV 222327Z 2300/2324 07006KT P6SM SKC
     FM230500 06004KT P6SM SCT250
     FM231200 06004KT P6SM SCT150 BKN250
     FM231800 06003KT P6SM FEW150=



000
FTUS44 KSHV 222300
TAFMLU
TAF
KMLU 222327Z 2300/2324 04006KT P6SM SKC
     FM230500 05004KT P6SM SCT250
     FM231200 05004KT P6SM SCT150 BKN250
     FM231800 05004KT P6SM FEW150=



000
FTUS44 KSHV 221700
TAFMLU
TAF
KMLU 221720Z 2218/2318 04007KT P6SM SKC
     FM230900 05004KT P6SM SCT150=



000
FTUS44 KSHV 221700
TAFELD
TAF
KELD 221720Z 2218/2318 06004KT P6SM SKC
     FM230600 07003KT P6SM SCT150 BKN300=



000
FTUS44 KSHV 221700
TAFTYR
TAF
KTYR 221720Z 2218/2318 08006KT P6SM SCT045
     FM230600 07003KT P6SM SCT150 BKN300=



000
FTUS44 KSHV 221700
TAFTXK
TAF
KTXK 221720Z 2218/2318 08006KT P6SM SCT045
     FM230600 07003KT P6SM SCT150 BKN300=



000
FTUS44 KSHV 221700
TAFSHV
TAF
KSHV 221720Z 2218/2318 09008KT P6SM SKC
     FM230600 07003KT P6SM SCT150 BKN300=



000
FTUS44 KSHV 221700
TAFLFK
TAF
KLFK 221720Z 2218/2318 08007KT P6SM SCT045
     FM230600 07003KT P6SM SCT150 BKN300=



000
FTUS44 KSHV 221700
TAFGGG
TAF
KGGG 221720Z 2218/2318 08006KT P6SM SCT045
     FM230600 07003KT P6SM SCT150 BKN300=



000
FTUS44 KSHV 221700
TAFSHV
TAF
KSHV 221720Z 2218/2318 09008KT P6SM SKC
     FM230600 07003KT P6SM SCT150 BKN300=



000
FTUS44 KSHV 221700
TAFTXK
TAF
KTXK 221720Z 2218/2318 08006KT P6SM SCT045
     FM230600 07003KT P6SM SCT150 BKN300=



000
FTUS44 KSHV 221700
TAFGGG
TAF
KGGG 221720Z 2218/2318 08006KT P6SM SCT045
     FM230600 07003KT P6SM SCT150 BKN300=



000
FTUS44 KSHV 221700
TAFLFK
TAF
KLFK 221720Z 2218/2318 08007KT P6SM SCT045
     FM230600 07003KT P6SM SCT150 BKN300=



000
FTUS44 KSHV 221700
TAFELD
TAF
KELD 221720Z 2218/2318 06004KT P6SM SKC
     FM230600 07003KT P6SM SCT150 BKN300=



000
FTUS44 KSHV 221700
TAFTYR
TAF
KTYR 221720Z 2218/2318 08006KT P6SM SCT045
     FM230600 07003KT P6SM SCT150 BKN300=



000
FTUS44 KSHV 221700
TAFMLU
TAF
KMLU 221720Z 2218/2318 04007KT P6SM SKC
     FM230900 05004KT P6SM SCT150=



000
FTUS44 KSHV 221500 AAB
TAFTYR
TAF AMD
KTYR 221519Z 2215/2312 08006KT P6SM SCT045
     FM230000 07003KT P6SM SKC=



000
FTUS44 KSHV 221300 AAA
TAFGGG
TAF AMD
KGGG 221315Z 2213/2312 07005KT 3SM BR SKC
     FM221400 08006KT P6SM SCT045
     FM230000 07003KT P6SM SKC=



000
FTUS44 KSHV 221300 AAA
TAFLFK
TAF AMD
KLFK 221315Z 2213/2312 00000KT 2SM BR SKC
     FM221400 08004KT P6SM SKC
     FM221700 07006KT P6SM SCT045
     FM230000 07003KT P6SM SKC=



000
FTUS44 KSHV 221300 AAA
TAFTYR
TAF AMD
KTYR 221315Z 2213/2312 00000KT 4SM BR SKC
     FM221700 08007KT P6SM SCT045 SCT250
     FM230000 07004KT P6SM SCT250=



000
FTUS44 KSHV 221100
TAFGGG
TAF
KGGG 221132Z 2212/2312 07005KT 6SM BR SKC
      TEMPO 2212/2213 3SM BR
     FM221400 08006KT P6SM SCT045
     FM230000 07003KT P6SM SKC=



000
FTUS44 KSHV 221100
TAFSHV
TAF
KSHV 221132Z 2212/2312 09004KT P6SM SKC
     FM221400 07006KT P6SM SCT045
     FM221800 06007KT P6SM SKC
     FM230000 05004KT P6SM SKC=



000
FTUS44 KSHV 221100
TAFTXK
TAF
KTXK 221132Z 2212/2312 06004KT P6SM FEW045
      TEMPO 2212/2214 5SM BR BKN045
     FM221400 08006KT P6SM SCT045
     FM230000 09003KT P6SM SKC=



000
FTUS44 KSHV 221100
TAFLFK
TAF
KLFK 221132Z 2212/2312 00000KT 3SM BR SKC
      TEMPO 2212/2214 6SM BR
     FM221400 08004KT P6SM SKC
     FM221700 07006KT P6SM SCT045
     FM230000 07003KT P6SM SKC=



000
FTUS44 KSHV 221100
TAFTYR
TAF
KTYR 221132Z 2212/2312 00000KT 5SM BR SKC
     FM221300 09005KT P6SM SCT045
     FM221700 08007KT P6SM SCT045 SCT250
     FM230000 07004KT P6SM SCT250=



000
FTUS44 KSHV 221100
TAFMLU
TAF
KMLU 221132Z 2212/2312 00000KT P6SM SKC
      TEMPO 2212/2213 3SM BR
     FM221400 05006KT P6SM SKC
     FM230000 00000KT P6SM SKC=



000
FTUS44 KSHV 221100
TAFELD
TAF
KELD 221132Z 2212/2312 00000KT 6SM BR SKC
      TEMPO 2212/2213 4SM BR
     FM221400 06004KT P6SM SKC
     FM230000 00000KT P6SM SKC=



000
FTUS44 KSHV 221000 AAA
TAFELD
TAF AMD
KELD 221037Z 2211/2306 00000KT P6SM SKC
      TEMPO 2211/2213 4SM BR
     FM221400 06004KT P6SM SKC
     FM230000 00000KT P6SM SKC=



000
FTUS44 KSHV 221000 AAA
TAFGGG
TAF AMD
KGGG 221036Z 2211/2306 08004KT 3SM BR FEW004
      TEMPO 2211/2213 1SM BR
     FM221400 09004KT P6SM SCT045 SCT250
     FM221700 07006KT P6SM SCT045 SCT250
     FM230000 07003KT P6SM SCT250=



000
FTUS44 KSHV 221000 AAA
TAFTXK
TAF AMD
KTXK 221034Z 2211/2306 08003KT 3SM BR FEW045
      TEMPO 2211/2213 6SM BR BKN045
     FM221300 08006KT P6SM SCT045
     FM230000 09003KT P6SM SCT250=



000
FTUS44 KSHV 220800 AAA
TAFMLU
TAF AMD
KMLU 220848Z 2209/2306 04003KT P6SM SKC
      TEMPO 2210/2213 3SM BR
     FM221300 00000KT P6SM SKC
     FM221500 05006KT P6SM SKC
     FM230000 00000KT P6SM SCT250=



000
FTUS44 KSHV 220500
TAFGGG
TAF
KGGG 220526Z 2206/2306 00000KT 6SM BR SKC
     FM221400 09004KT P6SM SCT045 SCT250
     FM221700 07006KT P6SM SCT045 SCT250
     FM230000 07003KT P6SM SCT250=



000
FTUS44 KSHV 220500
TAFMLU
TAF
KMLU 220526Z 2206/2306 04003KT 6SM BR FEW002
      TEMPO 2208/2212 1 1/2SM BR VV002
     FM221300 00000KT P6SM SKC
     FM221500 05006KT P6SM SKC
     FM230000 00000KT P6SM SCT250=



000
FTUS44 KSHV 220500
TAFTXK
TAF
KTXK 220526Z 2206/2306 00000KT P6SM SCT050
      TEMPO 2206/2210 BKN045
     FM221400 08006KT P6SM SKC
     FM230000 09003KT P6SM SCT250=



000
FTUS44 KSHV 220500
TAFTYR
TAF
KTYR 220526Z 2206/2306 00000KT P6SM SKC
     FM221400 09005KT P6SM SCT045
     FM221700 08007KT P6SM SCT045 SCT250
     FM230000 07004KT P6SM SCT250=



000
FTUS44 KSHV 220500
TAFLFK
TAF
KLFK 220526Z 2206/2306 00000KT 4SM BR SKC
      TEMPO 2209/2213 2SM BR
     FM221400 08004KT P6SM SCT040 SCT250
     FM221700 07006KT P6SM SCT045 SCT250
     FM230000 07003KT P6SM SCT250=



000
FTUS44 KSHV 220500
TAFSHV
TAF
KSHV 220526Z 2206/2306 00000KT P6SM SKC
     FM221400 07006KT P6SM SCT045
     FM221800 06007KT P6SM SKC
     FM230000 05004KT P6SM SCT250=



000
FTUS44 KSHV 220500
TAFELD
TAF
KELD 220526Z 2206/2306 00000KT P6SM SKC
      TEMPO 2209/2213 2SM BR
     FM221400 06004KT P6SM SKC
     FM230000 00000KT P6SM SKC=



000
FTUS44 KSHV 220500
TAFGGG
TAF
KGGG 220526Z 2206/2306 00000KT 6SM BR SKC
     FM221400 09004KT P6SM SCT045 SCT250
     FM221700 07006KT P6SM SCT045 SCT250
     FM230000 07003KT P6SM SCT250=



000
FTUS44 KSHV 220500
TAFTXK
TAF
KTXK 220526Z 2206/2306 00000KT P6SM SCT050
      TEMPO 2206/2210 BKN045
     FM221400 08006KT P6SM SKC
     FM230000 09003KT P6SM SCT250=



000
FTUS44 KSHV 220500
TAFMLU
TAF
KMLU 220526Z 2206/2306 04003KT 6SM BR FEW002
      TEMPO 2208/2212 1 1/2SM BR VV002
     FM221300 00000KT P6SM SKC
     FM221500 05006KT P6SM SKC
     FM230000 00000KT P6SM SCT250=



000
FTUS44 KSHV 220500
TAFSHV
TAF
KSHV 220526Z 2206/2306 00000KT P6SM SKC
     FM221400 07006KT P6SM SCT045
     FM221800 06007KT P6SM SKC
     FM230000 05004KT P6SM SCT250=



000
FTUS44 KSHV 220500
TAFELD
TAF
KELD 220526Z 2206/2306 00000KT P6SM SKC
      TEMPO 2209/2213 2SM BR
     FM221400 06004KT P6SM SKC
     FM230000 00000KT P6SM SKC=



000
FTUS44 KSHV 220500
TAFTYR
TAF
KTYR 220526Z 2206/2306 00000KT P6SM SKC
     FM221400 09005KT P6SM SCT045
     FM221700 08007KT P6SM SCT045 SCT250
     FM230000 07004KT P6SM SCT250=



000
FTUS44 KSHV 220500
TAFLFK
TAF
KLFK 220526Z 2206/2306 00000KT 4SM BR SKC
      TEMPO 2209/2213 2SM BR
     FM221400 08004KT P6SM SCT040 SCT250
     FM221700 07006KT P6SM SCT045 SCT250
     FM230000 07003KT P6SM SCT250=



000
FTUS44 KSHV 212300
TAFGGG
TAF
KGGG 212321Z 2200/2224 07003KT P6SM SKC
     FM221400 08005KT P6SM SCT040
     FM221700 08006KT P6SM SCT045 SCT250=



000
FTUS44 KSHV 212300
TAFTYR
TAF
KTYR 212321Z 2200/2224 09003KT P6SM SKC
     FM221400 08006KT P6SM SCT040
     FM221700 08007KT P6SM SCT045 SCT250=



000
FTUS44 KSHV 212300
TAFELD
TAF
KELD 212321Z 2200/2224 00000KT P6SM SKC
     FM221400 06004KT P6SM SKC=



000
FTUS44 KSHV 212300
TAFSHV
TAF
KSHV 212321Z 2200/2224 VRB03KT P6SM SKC
     FM221400 07006KT P6SM SCT040=



000
FTUS44 KSHV 212300
TAFMLU
TAF
KMLU 212321Z 2200/2224 VRB03KT P6SM SKC
     FM220600 00000KT 3SM BR SKC
      TEMPO 2208/2212 1/4SM FG VV002
     FM221300 00000KT P6SM SKC
     FM221500 05006KT P6SM SKC=



000
FTUS44 KSHV 212300
TAFSHV
TAF
KSHV 212321Z 2200/2224 VRB03KT P6SM SKC
     FM221400 07006KT P6SM SCT040=



000
FTUS44 KSHV 212300
TAFLFK
TAF
KLFK 212321Z 2200/2224 00000KT P6SM SKC
     FM221400 08005KT P6SM SCT040
     FM221700 07006KT P6SM SCT045 SCT250=



000
FTUS44 KSHV 212300
TAFMLU
TAF
KMLU 212321Z 2200/2224 VRB03KT P6SM SKC
     FM220600 00000KT 3SM BR SKC
      TEMPO 2208/2212 1/4SM FG VV002
     FM221300 00000KT P6SM SKC
     FM221500 05006KT P6SM SKC=



000
FTUS44 KSHV 212300
TAFELD
TAF
KELD 212321Z 2200/2224 00000KT P6SM SKC
     FM221400 06004KT P6SM SKC=



000
FTUS44 KSHV 212300
TAFTXK
TAF
KTXK 212321Z 2200/2224 03003KT P6SM SKC
     FM221400 05007KT P6SM SCT040=



000
FTUS44 KSHV 212300
TAFTYR
TAF
KTYR 212321Z 2200/2224 09003KT P6SM SKC
     FM221400 08006KT P6SM SCT040
     FM221700 08007KT P6SM SCT045 SCT250=



000
FTUS44 KSHV 212300
TAFLFK
TAF
KLFK 212321Z 2200/2224 00000KT P6SM SKC
     FM221400 08005KT P6SM SCT040
     FM221700 07006KT P6SM SCT045 SCT250=



000
FTUS44 KSHV 212300
TAFTXK
TAF
KTXK 212321Z 2200/2224 03003KT P6SM SKC
     FM221400 05007KT P6SM SCT040=



000
FTUS44 KSHV 212300
TAFGGG
TAF
KGGG 212321Z 2200/2224 07003KT P6SM SKC
     FM221400 08005KT P6SM SCT040
     FM221700 08006KT P6SM SCT045 SCT250=



000
FTUS44 KSHV 211700
TAFMLU
TAF
KMLU 211720Z 2118/2218 04005KT P6SM SCT045
     FM220000 VRB03KT P6SM SKC
      TEMPO 2208/2212 1SM BR
     FM221300 05007KT P6SM SKC=



000
FTUS44 KSHV 211700
TAFTXK
TAF
KTXK 211720Z 2118/2218 VRB04KT P6SM FEW040
     FM220000 09003KT P6SM SKC
     FM221300 08006KT P6SM SKC=



000
FTUS44 KSHV 211700
TAFGGG
TAF
KGGG 211720Z 2118/2218 07006KT P6SM SCT040
     FM220000 00000KT P6SM SKC
     FM221300 08005KT P6SM SKC=



000
FTUS44 KSHV 211700
TAFSHV
TAF
KSHV 211720Z 2118/2218 VRB04KT P6SM BKN045
     FM220000 VRB03KT P6SM SKC
     FM221300 08007KT P6SM SKC=



000
FTUS44 KSHV 211700
TAFELD
TAF
KELD 211720Z 2118/2218 VRB03KT P6SM SCT040
     FM220000 00000KT P6SM SKC
     FM221300 08005KT P6SM SKC=



000
FTUS44 KSHV 211700
TAFLFK
TAF
KLFK 211720Z 2118/2218 07007KT P6SM SCT040
     FM220000 00000KT P6SM SKC
     FM221400 08007KT P6SM SKC=



000
FTUS44 KSHV 211700
TAFTYR
TAF
KTYR 211720Z 2118/2218 07006KT P6SM SCT040
     FM220000 09003KT P6SM SKC
     FM221400 10007KT P6SM SKC=



000
FTUS44 KSHV 211100
TAFLFK
TAF
KLFK 211120Z 2112/2212 00000KT 6SM HZ SKC
      TEMPO 2112/2113 4SM HZ
     FM211500 07007KT P6SM SCT045
     FM220000 00000KT P6SM SKC=



000
FTUS44 KSHV 211100
TAFTYR
TAF
KTYR 211120Z 2112/2212 00000KT P6SM SKC
     FM211500 11005KT P6SM SCT045
     FM220000 09003KT P6SM SKC=



000
FTUS44 KSHV 211100
TAFSHV
TAF
KSHV 211120Z 2112/2212 00000KT P6SM FEW045
     FM211400 09004KT P6SM BKN045
     FM211800 05006KT P6SM SCT050
     FM220000 05003KT P6SM SKC=



000
FTUS44 KSHV 211100
TAFELD
TAF
KELD 211120Z 2112/2212 00000KT 5SM BR OVC045
     FM211400 04004KT P6SM BKN045
     FM211700 02004KT P6SM SCT050
     FM212100 00000KT P6SM SKC=



000
FTUS44 KSHV 211100
TAFSHV
TAF
KSHV 211120Z 2112/2212 00000KT P6SM FEW045
     FM211400 09004KT P6SM BKN045
     FM211800 05006KT P6SM SCT050
     FM220000 05003KT P6SM SKC=



000
FTUS44 KSHV 211100
TAFMLU
TAF
KMLU 211120Z 2112/2212 00000KT 6SM BR SCT040
      TEMPO 2112/2113 BKN040
     FM211400 VRB03KT P6SM BKN040
     FM211700 02005KT P6SM FEW045
     FM220000 VRB03KT P6SM SKC=



000
FTUS44 KSHV 211100
TAFTXK
TAF
KTXK 211120Z 2112/2212 00000KT P6SM OVC040
     FM211400 06003KT P6SM BKN045
     FM211700 05005KT P6SM SCT050
     FM220000 00000KT P6SM SKC=



000
FTUS44 KSHV 211100
TAFTYR
TAF
KTYR 211120Z 2112/2212 00000KT P6SM SKC
     FM211500 11005KT P6SM SCT045
     FM220000 09003KT P6SM SKC=



000
FTUS44 KSHV 211100
TAFGGG
TAF
KGGG 211120Z 2112/2212 00000KT P6SM SKC
     FM211400 08005KT P6SM SCT045
     FM220000 00000KT P6SM SKC=



000
FTUS44 KSHV 211100
TAFLFK
TAF
KLFK 211120Z 2112/2212 00000KT 6SM HZ SKC
      TEMPO 2112/2113 4SM HZ
     FM211500 07007KT P6SM SCT045
     FM220000 00000KT P6SM SKC=



000
FTUS44 KSHV 211100
TAFELD
TAF
KELD 211120Z 2112/2212 00000KT 5SM BR OVC045
     FM211400 04004KT P6SM BKN045
     FM211700 02004KT P6SM SCT050
     FM212100 00000KT P6SM SKC=



000
FTUS44 KSHV 211100
TAFGGG
TAF
KGGG 211120Z 2112/2212 00000KT P6SM SKC
     FM211400 08005KT P6SM SCT045
     FM220000 00000KT P6SM SKC=



000
FTUS44 KSHV 211100
TAFTXK
TAF
KTXK 211120Z 2112/2212 00000KT P6SM OVC040
     FM211400 06003KT P6SM BKN045
     FM211700 05005KT P6SM SCT050
     FM220000 00000KT P6SM SKC=



000
FTUS44 KSHV 211100
TAFMLU
TAF
KMLU 211120Z 2112/2212 00000KT 6SM BR SCT040
      TEMPO 2112/2113 BKN040
     FM211400 VRB03KT P6SM BKN040
     FM211700 02005KT P6SM FEW045
     FM220000 VRB03KT P6SM SKC=



000
FTUS44 KSHV 211000 AAA
TAFELD
TAF AMD
KELD 211044Z 2111/2206 00000KT P6SM BKN045
      TEMPO 2111/2113 5SM BR
     FM211600 04004KT P6SM SCT045
     FM212100 VRB04KT P6SM SKC=



000
FTUS44 KSHV 211000 AAA
TAFELD
TAF AMD
KELD 211044Z 2111/2206 00000KT P6SM BKN045
      TEMPO 2111/2113 5SM BR
     FM211600 04004KT P6SM SCT045
     FM212100 VRB04KT P6SM SKC=



000
FTUS44 KSHV 211000 AAC
TAFMLU
TAF AMD
KMLU 211019Z 2110/2206 00000KT 5SM BR FEW040
      TEMPO 2111/2112 2SM BR SCT002 BKN040
     FM211200 00000KT 6SM BR BKN040
     FM211400 02006KT P6SM SCT040
     FM220000 VRB03KT P6SM SKC=



000
FTUS44 KSHV 210900 AAB
TAFMLU
TAF AMD
KMLU 210927Z 2109/2206 00000KT 2SM BR SCT035
      TEMPO 2110/2112 1SM BR SCT002 BKN035
     FM211200 00000KT 4SM BR BKN035
     FM211400 02006KT P6SM SCT040
     FM220000 VRB03KT P6SM SKC=



000
FTUS44 KSHV 210800 AAA
TAFMLU
TAF AMD
KMLU 210842Z 2109/2206 04003KT 1/4SM FG VV002
      TEMPO 2110/2114 2SM BR SCT002 BKN035
     FM211400 02006KT P6SM SCT040
     FM220000 VRB03KT P6SM SKC=



000
FTUS44 KSHV 210500
TAFELD
TAF
KELD 210524Z 2106/2206 00000KT P6SM SKC
     FM210900 00000KT P6SM SCT040
      TEMPO 2110/2113 5SM BR
     FM211400 04004KT P6SM SCT040
     FM212100 VRB04KT P6SM SKC=



000
FTUS44 KSHV 210500
TAFMLU
TAF
KMLU 210524Z 2106/2206 00000KT P6SM SKC
     FM210900 00000KT 5SM BR SCT040
      TEMPO 2110/2114 2SM BR
     FM211400 02006KT P6SM SCT040
     FM220000 VRB03KT P6SM SKC=



000
FTUS44 KSHV 210500
TAFGGG
TAF
KGGG 210524Z 2106/2206 00000KT P6SM SKC
     FM211500 10005KT P6SM SCT045
     FM220000 09003KT P6SM SKC=



000
FTUS44 KSHV 210500
TAFSHV
TAF
KSHV 210524Z 2106/2206 00000KT P6SM SKC
     FM211500 04005KT P6SM SCT045
     FM220000 03003KT P6SM SKC=



000
FTUS44 KSHV 210500
TAFTXK
TAF
KTXK 210524Z 2106/2206 15005KT P6SM SKC
     FM211000 00000KT 6SM BR FEW040
      TEMPO 2111/2113 3SM BR
     FM211300 06003KT P6SM SCT040
     FM220000 00000KT P6SM SKC=



000
FTUS44 KSHV 210500
TAFTYR
TAF
KTYR 210524Z 2106/2206 00000KT P6SM SKC
     FM211500 11005KT P6SM SCT045
     FM220000 09003KT P6SM SKC=



000
FTUS44 KSHV 210500
TAFLFK
TAF
KLFK 210524Z 2106/2206 00000KT 6SM HZ SKC
      TEMPO 2111/2113 3SM BR SCT045
     FM211500 09007KT P6SM SCT045
     FM220000 06004KT P6SM SKC=



000
FTUS44 KSHV 202300 RRA
TAFGGG
TAF
KGGG 202348Z 2100/2124 00000KT P6SM SKC
     FM210100 00000KT P6SM SCT050
     FM211400 12004KT P6SM SKC
     FM211800 11005KT P6SM SCT045=



000
FTUS44 KSHV 202300 RRA
TAFTYR
TAF
KTYR 202348Z 2100/2124 05005KT P6SM SCT250
     FM210100 13003KT P6SM SKC
     FM211400 15006KT P6SM SKC
     FM211800 11005KT P6SM SCT045=



000
FTUS44 KSHV 202300 RRA
TAFTXK
TAF
KTXK 202348Z 2100/2124 VRB03KT P6SM SCT060
      TEMPO 2111/2113 3SM BR BKN050
     FM211400 07003KT P6SM BKN035
     FM212200 06003KT P6SM SCT040=



000
FTUS44 KSHV 202300 RRA
TAFMLU
TAF
KMLU 202348Z 2100/2124 VRB03KT P6SM SCT250
     FM210800 00000KT P6SM BKN035 OVC045
      TEMPO 2110/2114 3SM BR OVC025
     FM211400 04004KT P6SM BKN040
     FM212100 02006KT P6SM SCT040=



000
FTUS44 KSHV 202300 RRA
TAFELD
TAF
KELD 202348Z 2100/2124 00000KT P6SM FEW045 SCT250
     FM210800 00000KT P6SM BKN045
     FM211000 00000KT P6SM OVC035
     FM211400 05004KT P6SM BKN040=



000
FTUS44 KSHV 202300 RRA
TAFLFK
TAF
KLFK 202348Z 2100/2124 VRB03KT P6SM SCT060
      TEMPO 2111/2113 3SM BR BKN050
     FM211400 07003KT P6SM BKN035
     FM212200 06003KT P6SM SCT040=



000
FTUS44 KSHV 202300 RRA
TAFSHV
TAF
KSHV 202348Z 2100/2124 03005KT P6SM SCT250
     FM210100 VRB03KT P6SM SCT250
     FM211300 VRB03KT P6SM BKN050
     FM211700 08005KT P6SM SCT250=



000
FTUS44 KSHV 201700
TAFTXK
TAF
KTXK 201720Z 2018/2118 VRB03KT P6SM SKC
     FM210000 00000KT P6SM FEW050
     FM211400 09003KT P6SM SKC=



000
FTUS44 KSHV 201700
TAFSHV
TAF
KSHV 201720Z 2018/2118 35003KT P6SM SCT280
     FM210100 00000KT P6SM SCT045
     FM211300 10004KT P6SM SKC=



000
FTUS44 KSHV 201700
TAFELD
TAF
KELD 201720Z 2018/2118 VRB03KT P6SM SCT050
     FM210000 00000KT P6SM SCT050
     FM211400 05004KT P6SM SKC=



000
FTUS44 KSHV 201700
TAFLFK
TAF
KLFK 201720Z 2018/2118 VRB03KT P6SM SKC
     FM211400 08005KT P6SM SKC=



000
FTUS44 KSHV 201700
TAFTYR
TAF
KTYR 201720Z 2018/2118 28004KT P6SM SKC
     FM210100 13003KT P6SM SKC
     FM211400 15006KT P6SM SKC=



000
FTUS44 KSHV 201700
TAFMLU
TAF
KMLU 201720Z 2018/2118 34005KT P6SM SKC
     FM210000 00000KT P6SM SCT050
      TEMPO 2110/2114 1SM BR OVC007
     FM211400 04004KT P6SM SKC=



000
FTUS44 KSHV 201700
TAFGGG
TAF
KGGG 201720Z 2018/2118 17005KT P6SM SKC
     FM210100 00000KT P6SM SCT050
     FM211400 12004KT P6SM SKC=



000
FTUS44 KSHV 201100
TAFLFK
TAF
KLFK 201130Z 2012/2112 VRB03KT P6SM SCT250
     FM201500 VRB04KT P6SM SCT250
     FM210100 VRB02KT P6SM FEW250=



000
FTUS44 KSHV 201100
TAFSHV
TAF
KSHV 201130Z 2012/2112 00000KT P6SM SCT250
     FM201500 VRB03KT P6SM SCT150
     FM210100 00000KT P6SM SCT045=



000
FTUS44 KSHV 201100
TAFGGG
TAF
KGGG 201130Z 2012/2112 14003KT P6SM SCT250
     FM201500 VRB04KT P6SM SCT150
     FM210100 00000KT P6SM SKC=



000
FTUS44 KSHV 201100
TAFTXK
TAF
KTXK 201130Z 2012/2112 14003KT P6SM FEW250
      TEMPO 2012/2013 5SM BR
     FM201500 VRB03KT P6SM SCT150
     FM210000 00000KT P6SM FEW050=



000
FTUS44 KSHV 201100
TAFTYR
TAF
KTYR 201130Z 2012/2112 00000KT P6SM SKC
     FM201500 VRB04KT P6SM SCT150
     FM210100 13003KT P6SM SKC=



000
FTUS44 KSHV 201100
TAFELD
TAF
KELD 201130Z 2012/2112 00000KT P6SM FEW150
     FM201500 VRB03KT P6SM SCT045
     FM210000 00000KT P6SM SCT250=



000
FTUS44 KSHV 201100
TAFMLU
TAF
KMLU 201130Z 2012/2112 00000KT 5SM BR SKC
      TEMPO 2012/2013 1SM BR
     FM201400 VRB03KT P6SM SCT250
     FM210000 00000KT P6SM SCT050=



000
FTUS44 KSHV 200800 AAB
TAFMLU
TAF AMD
KMLU 200850Z 2009/2106 00000KT 5SM BR SKC
      TEMPO 2009/2012 1/2SM FG VV002
     FM201400 VRB03KT P6SM SCT300
     FM202300 VRB03KT P6SM SCT050=



000
FTUS44 KSHV 200800 AAB
TAFSHV
TAF AMD
KSHV 200810Z 2008/2106 00000KT P6SM FEW150
     FM201500 VRB03KT P6SM SCT150 SCT300
     FM210100 00000KT P6SM SCT045=



000
FTUS44 KSHV 200800 AAB
TAFSHV
TAF AMD
KSHV 200810Z 2008/2106 00000KT P6SM FEW150
     FM201500 VRB03KT P6SM SCT150 SCT300
     FM210100 00000KT P6SM SCT045=



000
FTUS44 KSHV 200700 AAA
TAFSHV
TAF AMD
KSHV 200705Z 2007/2106 00000KT P6SM FEW150
      TEMPO 2007/2009 5SM BR
     FM201500 VRB03KT P6SM SCT150 SCT300
     FM210100 00000KT P6SM SCT045=



000
FTUS44 KSHV 200600 AAA
TAFMLU
TAF AMD
KMLU 200600Z 2006/2106 00000KT P6SM SKC
      TEMPO 2006/2010 5SM BR
     FM201000 00000KT 4SM BR FEW300
     FM201400 VRB03KT P6SM SCT300
     FM202300 VRB03KT P6SM SCT050=



000
FTUS44 KSHV 200500
TAFELD
TAF
KELD 200525Z 2006/2106 VRB03KT P6SM FEW150
      TEMPO 2011/2013 5SM BR SCT150 SCT300
     FM201900 VRB03KT P6SM BKN045
     FM210000 00000KT P6SM BKN040=



000
FTUS44 KSHV 200500
TAFGGG
TAF
KGGG 200525Z 2006/2106 14003KT P6SM SKC
     FM201500 VRB04KT P6SM SCT045 SCT150
     FM202100 08003KT P6SM FEW250
     FM210100 00000KT P6SM SKC=



000
FTUS44 KSHV 200500
TAFMLU
TAF
KMLU 200525Z 2006/2106 00000KT P6SM SKC
      TEMPO 2008/2010 5SM BR
     FM201000 00000KT 4SM BR FEW300
     FM201400 VRB03KT P6SM SCT300
     FM202300 VRB03KT P6SM SCT050=



000
FTUS44 KSHV 200500
TAFTYR
TAF
KTYR 200525Z 2006/2106 14003KT P6SM SKC
     FM201500 VRB04KT P6SM SCT045 SCT150
     FM202100 08003KT P6SM FEW250
     FM210100 00000KT P6SM SKC=



000
FTUS44 KSHV 200500
TAFTXK
TAF
KTXK 200525Z 2006/2106 14003KT P6SM FEW150 SCT300
      TEMPO 2011/2013 5SM BR SCT150 SCT300
     FM201500 VRB03KT P6SM SCT045 BKN120
     FM210000 00000KT P6SM BKN040=



000
FTUS44 KSHV 200500
TAFSHV
TAF
KSHV 200525Z 2006/2106 00000KT P6SM FEW150
      TEMPO 2011/2013 5SM BR FEW150
     FM201500 VRB03KT P6SM SCT150 SCT300
     FM210100 00000KT P6SM SCT045=



000
FTUS44 KSHV 200500
TAFLFK
TAF
KLFK 200525Z 2006/2106 VRB03KT P6SM FEW150 SCT250
      TEMPO 2011/2013 5SM BR SCT250
     FM201500 VRB04KT P6SM SCT250
     FM210100 04004KT P6SM FEW250=



    US Dept of Commerce
    National Oceanic and Atmospheric Administration
    National Weather Service
    1325 East West Highway
    Silver Spring, MD 20910
    Page Author: NWS Internet Services Team
Disclaimer
Information Quality
Credits
Glossary
Privacy Policy
Freedom of Information Act (FOIA)
About Us
Career Opportunities